Time;durP1;ratioP1;P1;durP2;ratioP2;P2;SDS_P1;SDS_P2;PMS_P1;PMS_P2;Temp;Humidity;BMP_temperature;BMP_pressure;BME280_temperature;BME280_humidity;BME280_pressure;Samples;Min_cycle;Max_cycle;Signal;HPM_P1;HPM_P2
2022/07/21 00:00:19;;;;;;;5.13;4.18;;;;;;;19.55;73.83;99827.22;5028441;28;20041;-65
2022/07/21 00:02:46;;;;;;;6.72;4.82;;;;;;;19.48;73.73;99841.09;5028477;28;20049;-65
2022/07/21 00:05:13;;;;;;;6.82;5.20;;;;;;;19.46;74.30;99850.22;5028232;28;20472;-65
2022/07/21 00:07:40;;;;;;;5.45;4.40;;;;;;;19.44;74.37;99854.84;5028431;28;20053;-67
2022/07/21 00:10:07;;;;;;;7.70;5.35;;;;;;;19.43;74.24;99848.66;5028680;28;20056;-66
2022/07/21 00:12:35;;;;;;;7.75;5.50;;;;;;;19.38;74.41;99842.84;5028205;28;20049;-65
2022/07/21 00:15:03;;;;;;;7.28;5.57;;;;;;;19.32;74.99;99843.41;5026993;28;20056;-65
2022/07/21 00:17:30;;;;;;;8.18;5.80;;;;;;;19.28;75.38;99831.25;5027485;28;20045;-66
2022/07/21 00:19:56;;;;;;;6.93;5.80;;;;;;;19.27;75.41;99838.44;5028216;28;20054;-66
2022/07/21 00:22:23;;;;;;;8.32;6.07;;;;;;;19.24;75.47;99827.97;5027486;28;20045;-65
2022/07/21 00:24:49;;;;;;;10.10;6.75;;;;;;;19.26;75.82;99830.53;5027746;28;20058;-65
2022/07/21 00:27:16;;;;;;;7.55;6.25;;;;;;;19.22;75.75;99827.28;5027828;28;20056;-65
2022/07/21 00:29:44;;;;;;;8.60;6.47;;;;;;;19.21;75.68;99825.56;5027696;28;20049;-65
2022/07/21 00:32:11;;;;;;;12.60;6.25;;;;;;;19.22;75.98;99826.41;5027752;28;20053;-65
2022/07/21 00:34:37;;;;;;;12.55;6.28;;;;;;;19.22;75.96;99835.31;5027344;28;20045;-65
2022/07/21 00:37:04;;;;;;;10.32;5.88;;;;;;;19.22;75.95;99840.66;5027518;28;20052;-65
2022/07/21 00:39:31;;;;;;;7.28;6.22;;;;;;;19.24;76.14;99830.66;5026952;28;20133;-65
2022/07/21 00:41:58;;;;;;;8.35;7.38;;;;;;;19.28;76.57;99831.25;5027492;28;20072;-65
2022/07/21 00:44:26;;;;;;;11.02;6.35;;;;;;;19.29;76.24;99839.13;5026927;28;20390;-63
2022/07/21 00:46:55;;;;;;;9.35;6.75;;;;;;;19.30;76.30;99829.31;5027316;28;20045;-64
2022/07/21 00:49:22;;;;;;;9.18;7.13;;;;;;;19.26;76.46;99835.88;5027287;28;20045;-64
2022/07/21 00:51:49;;;;;;;9.20;6.25;;;;;;;19.21;76.63;99835.41;5027668;28;20052;-64
2022/07/21 00:54:18;;;;;;;10.50;8.10;;;;;;;19.20;76.84;99831.06;5027019;28;20060;-65
2022/07/21 00:56:46;;;;;;;8.48;6.85;;;;;;;19.23;76.75;99825.44;5027673;28;20484;-65
2022/07/21 00:59:13;;;;;;;10.45;7.43;;;;;;;19.19;77.03;99824.84;5026919;28;20046;-66
2022/07/21 01:01:39;;;;;;;10.77;7.75;;;;;;;19.17;77.18;99821.44;5000422;28;20045;-65
2022/07/21 01:04:07;;;;;;;10.20;8.00;;;;;;;19.19;77.20;99832.03;5027014;28;20548;-65
2022/07/21 01:06:34;;;;;;;9.95;7.97;;;;;;;19.16;77.24;99822.44;5026057;28;20069;-64
2022/07/21 01:09:01;;;;;;;9.60;8.35;;;;;;;19.16;77.38;99819.78;5027368;28;20144;-64
2022/07/21 01:11:28;;;;;;;8.80;7.20;;;;;;;19.15;77.26;99818.09;5027200;28;20049;-65
2022/07/21 01:13:55;;;;;;;10.60;8.40;;;;;;;19.14;77.12;99816.38;5027172;28;20059;-64
2022/07/21 01:16:21;;;;;;;10.07;8.40;;;;;;;19.13;77.25;99813.84;5026903;28;20064;-65
2022/07/21 01:18:48;;;;;;;8.77;7.68;;;;;;;19.15;77.00;99804.72;5027476;28;20045;-64
2022/07/21 01:21:29;;;;;;;11.55;7.88;;;;;;;19.19;77.07;99814.16;5027269;28;20049;-65
2022/07/21 01:23:55;;;;;;;10.18;7.38;;;;;;;19.18;76.82;99808.97;5025949;28;20551;-65
2022/07/21 01:26:22;;;;;;;9.38;8.35;;;;;;;19.18;77.02;99820.50;5026533;28;20241;-65
2022/07/21 01:28:49;;;;;;;9.35;7.65;;;;;;;19.14;76.90;99813.69;5026492;28;20133;-65
2022/07/21 01:31:15;;;;;;;10.45;8.15;;;;;;;19.16;77.16;99821.59;5026716;28;20053;-63
2022/07/21 01:33:42;;;;;;;9.13;7.68;;;;;;;19.14;77.11;99824.41;5027204;28;20056;-65
2022/07/21 01:36:09;;;;;;;7.95;7.15;;;;;;;19.13;77.14;99817.38;5026568;28;20049;-64
2022/07/21 01:41:29;;;;;;;10.02;8.45;;;;;;;19.05;77.39;99831.38;5026493;28;20424;-65
2022/07/21 01:43:56;;;;;;;;;;;;;;;19.05;77.23;99828.69;5026137;28;20063;-65
2022/07/21 01:46:23;;;;;;;13.20;8.65;;;;;;;19.03;77.97;99838.66;5026544;28;20334;-65
2022/07/21 01:48:49;;;;;;;11.93;9.23;;;;;;;19.02;77.92;99833.44;5026558;28;20053;-63
2022/07/21 01:51:16;;;;;;;8.95;7.25;;;;;;;19.03;77.79;99829.81;5026945;28;20236;-65
2022/07/21 01:53:44;;;;;;;13.07;8.65;;;;;;;19.03;77.98;99830.66;5027725;28;20499;-65
2022/07/21 01:56:10;;;;;;;12.10;8.77;;;;;;;19.02;77.95;99833.44;5026117;28;20056;-65
2022/07/21 01:58:37;;;;;;;9.52;8.52;;;;;;;19.01;78.15;99835.28;5025967;28;20055;-64
2022/07/21 02:01:04;;;;;;;10.02;8.52;;;;;;;18.99;78.10;99839.03;5025947;28;20045;-66
2022/07/21 02:03:31;;;;;;;11.27;9.25;;;;;;;18.99;78.72;99831.03;5025790;28;20180;-66
2022/07/21 02:06:02;;;;;;;12.10;9.07;;;;;;;18.98;78.38;99835.53;5025441;28;20409;-66
2022/07/21 02:08:28;;;;;;;15.63;9.45;;;;;;;18.96;78.82;99837.47;5025857;28;20527;-66
2022/07/21 02:10:56;;;;;;;10.45;9.23;;;;;;;18.99;79.33;99834.53;5026040;28;20045;-64
2022/07/21 02:13:23;;;;;;;10.48;8.93;;;;;;;18.98;78.72;99832.03;5026099;28;20069;-64
2022/07/21 02:15:50;;;;;;;10.85;8.73;;;;;;;18.95;78.83;99837.59;5025386;28;20053;-63
2022/07/21 02:18:16;;;;;;;10.38;8.57;;;;;;;18.97;78.95;99832.97;5024958;28;20155;-64
2022/07/21 02:20:44;;;;;;;10.52;8.68;;;;;;;19.00;79.16;99833.59;5025709;28;20049;-66
2022/07/21 02:23:11;;;;;;;11.93;8.55;;;;;;;19.04;78.98;99836.84;5025694;28;20086;-64
2022/07/21 02:25:38;;;;;;;9.73;8.80;;;;;;;19.06;78.88;99833.06;5025498;28;20052;-67
2022/07/21 02:28:06;;;;;;;9.80;7.53;;;;;;;19.04;79.12;99836.84;5025320;28;20045;-65
2022/07/21 02:30:33;;;;;;;12.20;9.30;;;;;;;19.03;79.00;99837.81;5025463;28;20053;-65
2022/07/21 02:32:59;;;;;;;13.02;9.35;;;;;;;19.02;79.14;99844.97;5025452;28;20417;-65
2022/07/21 02:35:26;;;;;;;12.45;8.18;;;;;;;18.97;79.67;99839.16;5024748;28;20057;-66
2022/07/21 02:37:53;;;;;;;10.10;7.68;;;;;;;18.95;79.78;99838.47;5025372;28;20420;-65
2022/07/21 02:40:19;;;;;;;10.57;8.93;;;;;;;18.97;80.03;99835.66;5024629;28;20054;-65
2022/07/21 02:42:46;;;;;;;11.63;8.85;;;;;;;18.96;79.93;99836.63;5024262;28;20136;-65
2022/07/21 02:45:14;;;;;;;14.00;8.18;;;;;;;18.95;79.65;99838.47;5024688;28;20060;-65
2022/07/21 02:47:52;;;;;;;11.98;9.82;;;;;;;18.95;79.97;99833.13;5025711;28;20053;-65
2022/07/21 02:50:19;;;;;;;12.40;9.85;;;;;;;18.97;80.18;99825.81;5025099;28;20042;-65
2022/07/21 02:52:46;;;;;;;10.57;9.32;;;;;;;18.96;79.57;99826.78;5025147;28;20060;-64
2022/07/21 02:55:13;;;;;;;11.55;9.60;;;;;;;18.98;79.72;99832.88;5024557;28;20045;-64
2022/07/21 02:57:40;;;;;;;12.88;9.30;;;;;;;19.00;79.73;99822.91;5025380;28;20578;-65
2022/07/21 03:00:09;;;;;;;14.13;9.43;;;;;;;19.03;79.66;99819.97;5025258;28;20061;-64
2022/07/21 03:02:37;;;;;;;14.70;10.45;;;;;;;19.03;79.41;99827.13;5024781;28;20103;-65
2022/07/21 03:05:05;;;;;;;15.23;9.60;;;;;;;19.04;79.87;99818.97;5024155;28;20049;-65
2022/07/21 03:07:31;;;;;;;10.95;8.85;;;;;;;19.05;79.52;99820.69;5024816;28;20060;-65
2022/07/21 03:09:58;;;;;;;12.38;8.68;;;;;;;19.07;80.01;99813.41;5025639;28;20049;-64
2022/07/21 03:12:24;;;;;;;10.82;8.73;;;;;;;19.08;79.96;99817.75;5025329;28;20053;-63
2022/07/21 03:14:52;;;;;;;10.18;8.45;;;;;;;19.18;79.59;99825.00;5023824;28;20053;-65
2022/07/21 03:17:19;;;;;;;11.13;8.57;;;;;;;19.20;79.03;99820.38;5024213;28;20057;-64
2022/07/21 03:19:47;;;;;;;12.35;9.57;;;;;;;19.19;78.99;99816.00;5024800;28;20053;-63
2022/07/21 03:22:13;;;;;;;15.98;10.25;;;;;;;19.20;79.02;99815.03;5024376;28;20066;-65
2022/07/21 03:24:40;;;;;;;10.77;7.95;;;;;;;19.24;79.00;99811.94;5024398;28;20701;-66
2022/07/21 03:27:07;;;;;;;12.90;10.73;;;;;;;19.26;78.77;99822.50;5024515;28;20049;-65
2022/07/21 03:29:33;;;;;;;11.73;10.05;;;;;;;19.27;78.73;99814.38;5023894;28;20045;-64
2022/07/21 03:32:00;;;;;;;13.98;10.32;;;;;;;19.25;78.66;99815.50;5025018;28;20077;-63
2022/07/21 03:34:26;;;;;;;15.27;10.90;;;;;;;19.24;78.95;99822.63;5024013;28;20512;-64
2022/07/21 03:36:54;;;;;;;13.50;11.07;;;;;;;19.25;78.92;99818.16;5024375;28;20052;-64
2022/07/21 03:39:21;;;;;;;12.38;11.10;;;;;;;19.25;78.88;99820.84;5024431;28;20059;-64
2022/07/21 03:41:47;;;;;;;12.93;11.63;;;;;;;19.25;78.92;99815.50;5024516;28;20046;-64
2022/07/21 03:44:14;;;;;;;10.57;9.38;;;;;;;19.29;79.04;99827.59;5023829;28;20140;-64
2022/07/21 03:46:40;;;;;;;15.23;10.68;;;;;;;19.33;78.53;99817.50;5024716;28;20054;-65
2022/07/21 03:49:07;;;;;;;11.55;10.35;;;;;;;19.36;78.47;99810.06;5024206;28;20045;-65
2022/07/21 03:51:33;;;;;;;14.60;11.45;;;;;;;19.37;78.13;99821.59;5024270;28;20489;-65
2022/07/21 03:54:01;;;;;;;14.25;11.13;;;;;;;19.34;77.85;99820.03;5023800;28;20050;-66
2022/07/21 03:56:28;;;;;;;12.50;11.02;;;;;;;19.38;77.76;99810.78;5024414;28;20183;-65
2022/07/21 03:58:55;;;;;;;15.13;10.50;;;;;;;19.41;77.71;99807.84;5024020;28;20509;-65
2022/07/21 04:01:22;;;;;;;13.73;10.85;;;;;;;19.40;77.55;99810.66;5024639;28;20053;-64
2022/07/21 04:03:48;;;;;;;14.38;11.35;;;;;;;19.37;77.43;99803.75;5024267;28;20063;-65
2022/07/21 04:06:15;;;;;;;13.20;11.88;;;;;;;19.38;77.85;99807.25;5023543;28;20059;-65
2022/07/21 04:08:41;;;;;;;13.20;11.73;;;;;;;19.42;77.58;99800.66;5024642;28;20045;-66
2022/07/21 04:11:09;;;;;;;13.85;12.32;;;;;;;19.45;77.38;99806.59;5024635;28;20045;-64
2022/07/21 04:13:36;;;;;;;12.63;11.13;;;;;;;19.43;77.39;99800.53;5024518;28;20056;-65
2022/07/21 04:16:03;;;;;;;12.32;9.88;;;;;;;19.43;77.30;99799.69;5023543;28;20049;-65
2022/07/21 04:18:29;;;;;;;18.30;11.60;;;;;;;19.43;77.25;99803.19;5023822;28;20529;-65
2022/07/21 04:20:56;;;;;;;11.80;10.15;;;;;;;19.43;76.85;99800.53;5024054;28;20523;-65
2022/07/21 04:23:22;;;;;;;12.55;11.05;;;;;;;19.41;76.96;99807.84;5023615;28;20049;-64
2022/07/21 04:25:49;;;;;;;11.55;10.35;;;;;;;19.42;77.22;99814.88;5023968;28;20041;-64
2022/07/21 04:28:17;;;;;;;15.55;10.23;;;;;;;19.44;77.07;99818.28;5024519;28;20052;-64
2022/07/21 04:30:43;;;;;;;12.82;10.55;;;;;;;19.38;76.94;99824.16;5024200;28;20045;-64
2022/07/21 04:33:10;;;;;;;12.95;9.23;;;;;;;19.36;77.26;99820.75;5024262;28;20059;-65
2022/07/21 04:35:37;;;;;;;13.20;8.95;;;;;;;19.39;77.14;99825.81;5023695;28;20049;-64
2022/07/21 04:38:03;;;;;;;14.85;9.20;;;;;;;19.42;76.84;99828.25;5024617;28;20053;-64
2022/07/21 04:40:30;;;;;;;12.52;9.90;;;;;;;19.44;77.31;99828.97;5025589;28;20045;-64
2022/07/21 04:42:56;;;;;;;14.82;10.30;;;;;;;19.47;77.12;99834.06;5028528;28;20045;-65
2022/07/21 04:45:24;;;;;;;12.02;10.32;;;;;;;19.49;76.82;99821.41;5028545;28;20061;-64
2022/07/21 04:47:54;;;;;;;12.57;10.63;;;;;;;19.44;77.16;99831.66;5031470;28;20047;-65
2022/07/21 04:50:22;;;;;;;13.40;9.68;;;;;;;19.46;77.42;99820.81;5029523;28;20046;-63
2022/07/21 04:52:49;;;;;;;10.98;9.57;;;;;;;19.44;77.41;99814.75;5029912;28;20045;-64
2022/07/21 04:55:16;;;;;;;14.85;10.90;;;;;;;19.46;77.36;99827.00;5029658;28;20057;-64
2022/07/21 04:57:45;;;;;;;12.35;10.98;;;;;;;19.46;76.99;99832.34;5023107;28;20558;-64
2022/07/21 05:00:14;;;;;;;18.02;11.40;;;;;;;19.47;77.10;99834.06;5009909;28;20056;-64
2022/07/21 05:02:43;;;;;;;14.98;10.85;;;;;;;19.47;77.10;99847.44;5007727;28;20052;-64
2022/07/21 05:05:10;;;;;;;16.73;11.10;;;;;;;19.48;77.31;99845.59;5007781;28;20076;-64
2022/07/21 05:07:37;;;;;;;13.05;10.23;;;;;;;19.48;77.66;99858.97;5008028;28;20053;-65
2022/07/21 05:10:05;;;;;;;12.73;11.43;;;;;;;19.46;77.42;99859.09;5008191;28;20129;-64
2022/07/21 05:12:31;;;;;;;12.32;10.30;;;;;;;19.47;77.46;99858.13;5007968;28;20721;-65
2022/07/21 05:14:58;;;;;;;14.65;9.85;;;;;;;19.50;77.52;99854.34;5006540;28;20160;-66
2022/07/21 05:17:25;;;;;;;12.90;9.95;;;;;;;19.52;76.95;99850.56;5012794;28;20405;-65
2022/07/21 05:19:52;;;;;;;15.38;11.98;;;;;;;19.58;77.17;99835.78;5017893;28;20517;-65
2022/07/21 05:22:19;;;;;;;12.65;9.93;;;;;;;19.64;76.69;99842.44;5012931;28;20053;-66
2022/07/21 05:24:46;;;;;;;15.00;13.32;;;;;;;19.68;76.52;99836.72;5024112;28;20075;-65
2022/07/21 05:27:12;;;;;;;12.25;9.57;;;;;;;19.76;76.16;99837.91;5026624;28;20057;-65
2022/07/21 05:29:39;;;;;;;12.00;10.75;;;;;;;19.88;75.59;99835.00;5026947;28;20049;-65
2022/07/21 05:32:06;;;;;;;12.23;11.02;;;;;;;19.95;75.29;99828.13;5026603;28;20057;-65
2022/07/21 05:34:33;;;;;;;12.93;10.32;;;;;;;20.09;74.82;99834.94;5025544;28;20061;-66
2022/07/21 05:37:02;;;;;;;11.23;9.90;;;;;;;20.05;73.80;99830.84;5026545;28;20052;-65
2022/07/21 05:39:30;;;;;;;11.82;9.32;;;;;;;20.13;73.94;99820.31;5025971;28;20049;-65
2022/07/21 05:41:56;;;;;;;13.75;10.00;;;;;;;20.21;73.96;99825.00;5026238;28;20053;-65
2022/07/21 05:44:23;;;;;;;12.70;9.98;;;;;;;20.23;73.29;99824.84;5025496;28;20059;-64
2022/07/21 05:46:50;;;;;;;11.60;8.55;;;;;;;20.20;73.52;99820.59;5026395;28;20046;-66
2022/07/21 05:49:16;;;;;;;12.93;9.32;;;;;;;20.24;73.22;99823.88;5026270;28;20053;-64
2022/07/21 05:51:43;;;;;;;10.73;8.77;;;;;;;20.26;72.98;99824.59;5025689;28;20126;-64
2022/07/21 05:54:11;;;;;;;12.05;8.75;;;;;;;20.29;73.13;99825.16;5026453;28;20053;-65
2022/07/21 05:56:37;;;;;;;10.63;8.80;;;;;;;20.32;72.81;99826.69;5028513;28;20554;-65
2022/07/21 05:59:04;;;;;;;12.13;9.02;;;;;;;20.28;73.11;99828.81;5010348;28;20065;-65
2022/07/21 06:01:30;;;;;;;13.55;8.30;;;;;;;20.36;72.86;99838.84;5006852;28;20053;-65
2022/07/21 06:03:57;;;;;;;14.15;9.48;;;;;;;20.42;72.45;99840.13;5006509;28;20042;-64
2022/07/21 06:06:24;;;;;;;10.05;8.43;;;;;;;20.43;72.58;99833.75;5006282;28;20096;-64
2022/07/21 06:08:51;;;;;;;9.52;7.65;;;;;;;20.43;72.86;99842.66;5006328;28;20046;-65
2022/07/21 06:11:21;;;;;;;15.70;9.52;;;;;;;20.49;72.21;99846.63;5005924;28;20104;-65
2022/07/21 06:13:47;;;;;;;12.60;8.20;;;;;;;20.48;72.03;99845.78;5007068;28;20057;-64
2022/07/21 06:16:14;;;;;;;15.23;8.55;;;;;;;20.42;71.71;99848.16;5006186;28;20058;-64
2022/07/21 06:18:41;;;;;;;13.38;9.82;;;;;;;20.37;71.87;99849.41;5007097;28;20061;-66
2022/07/21 06:21:07;;;;;;;10.93;7.75;;;;;;;20.30;71.67;99853.59;5006299;28;20056;-65
2022/07/21 06:23:34;;;;;;;12.65;7.47;;;;;;;20.32;71.48;99857.00;5008590;28;20069;-65
2022/07/21 06:26:01;;;;;;;12.73;8.85;;;;;;;20.33;71.71;99848.00;5025124;28;20051;-65
2022/07/21 06:28:29;;;;;;;11.73;7.70;;;;;;;20.34;70.98;99851.50;5025350;28;20495;-65
2022/07/21 06:30:55;;;;;;;9.65;7.15;;;;;;;20.30;70.51;99845.56;5025580;28;20049;-65
2022/07/21 06:33:22;;;;;;;8.40;7.05;;;;;;;20.27;70.45;99845.84;5025771;28;20049;-65
2022/07/21 06:35:49;;;;;;;9.43;5.63;;;;;;;20.38;70.15;99844.91;5024538;28;20059;-65
2022/07/21 06:38:15;;;;;;;13.35;6.85;;;;;;;20.40;70.09;99850.13;5025795;28;20505;-65
2022/07/21 06:40:42;;;;;;;9.88;7.28;;;;;;;20.47;69.93;99843.22;5026102;28;20053;-65
2022/07/21 06:43:09;;;;;;;10.05;7.13;;;;;;;20.50;69.48;99849.16;5025456;28;20071;-65
2022/07/21 06:45:37;;;;;;;10.07;7.35;;;;;;;20.51;69.38;99847.34;5024482;28;20053;-63
2022/07/21 06:48:05;;;;;;;9.10;6.22;;;;;;;20.49;69.49;99857.34;5025311;28;20367;-64
2022/07/21 06:50:32;;;;;;;13.05;6.40;;;;;;;20.43;69.65;99869.44;5024474;28;20301;-66
2022/07/21 06:52:59;;;;;;;12.88;7.50;;;;;;;20.46;69.81;99868.31;5024717;28;20049;-65
2022/07/21 06:55:26;;;;;;;11.73;6.85;;;;;;;20.52;69.75;99855.22;5024322;28;20049;-65
2022/07/21 06:57:53;;;;;;;9.85;7.10;;;;;;;20.53;69.56;99854.25;5016550;28;20054;-65
2022/07/21 07:00:21;;;;;;;12.13;7.15;;;;;;;20.72;69.13;99841.88;5005202;28;20100;-65
2022/07/21 07:03:10;;;;;;;13.43;7.55;;;;;;;20.93;68.17;99837.25;5016075;28;20068;-65
2022/07/21 07:05:37;;;;;;;16.38;8.30;;;;;;;20.91;68.14;99839.22;5024355;28;20053;-65
2022/07/21 07:08:05;;;;;;;14.13;7.35;;;;;;;21.04;68.10;99846.97;5024786;28;20137;-65
2022/07/21 07:10:31;;;;;;;9.48;6.78;;;;;;;21.17;66.56;99850.22;5025360;28;20121;-64
2022/07/21 07:13:01;;;;;;;13.05;6.72;;;;;;;21.36;66.45;99854.75;5024906;28;20436;-65
2022/07/21 07:15:29;;;;;;;11.85;8.68;;;;;;;21.50;65.21;99852.63;5024543;28;20060;-66
2022/07/21 07:17:57;;;;;;;9.10;7.25;;;;;;;21.54;65.38;99859.41;5024516;28;20527;-65
2022/07/21 07:20:23;;;;;;;12.32;8.70;;;;;;;21.42;65.48;99859.56;5024526;28;20057;-66
2022/07/21 07:22:50;;;;;;;10.40;7.60;;;;;;;21.36;66.15;99865.47;5023169;28;20075;-65
2022/07/21 07:25:17;;;;;;;10.05;7.88;;;;;;;21.34;65.99;99862.09;5004495;28;20072;-65
2022/07/21 07:27:44;;;;;;;11.38;7.82;;;;;;;21.32;66.02;99871.25;5009913;28;20045;-64
2022/07/21 07:30:12;;;;;;;14.90;7.25;;;;;;;21.23;65.76;99871.09;5023505;28;20065;-65
2022/07/21 07:32:39;;;;;;;10.38;7.47;;;;;;;21.19;65.39;99877.75;5023045;28;20053;-65
2022/07/21 07:35:09;;;;;;;13.40;7.90;;;;;;;21.21;65.33;99875.75;5023932;28;20069;-64
2022/07/21 07:37:36;;;;;;;10.30;7.63;;;;;;;21.37;64.82;99864.47;5023389;28;20073;-65
2022/07/21 07:40:03;;;;;;;14.15;8.55;;;;;;;21.46;64.27;99876.19;5024426;28;20068;-65
2022/07/21 07:42:29;;;;;;;8.05;6.20;;;;;;;21.41;64.63;99871.28;5025227;28;20060;-65
2022/07/21 07:44:56;;;;;;;8.55;7.40;;;;;;;21.41;64.05;99873.97;5023362;28;20051;-65
2022/07/21 07:47:25;;;;;;;9.63;7.68;;;;;;;21.31;64.14;99859.66;5023646;28;20050;-65
2022/07/21 07:49:52;;;;;;;9.00;7.15;;;;;;;21.32;63.54;99864.06;5024133;28;20047;-65
2022/07/21 07:52:21;;;;;;;12.25;8.38;;;;;;;21.37;64.04;99872.53;5024792;28;20060;-65
2022/07/21 07:54:47;;;;;;;10.80;6.55;;;;;;;21.47;63.49;99869.00;5023599;28;20056;-63
2022/07/21 07:57:14;;;;;;;9.02;7.35;;;;;;;21.59;63.63;99873.22;5021639;28;20050;-64
2022/07/21 07:59:40;;;;;;;9.45;6.82;;;;;;;21.70;63.31;99872.22;5005234;28;20054;-65
2022/07/21 08:02:07;;;;;;;9.85;7.70;;;;;;;21.56;62.96;99868.13;5005233;28;20060;-65
2022/07/21 08:04:35;;;;;;;12.95;7.47;;;;;;;21.55;63.60;99875.34;5004299;28;20058;-63
2022/07/21 08:07:01;;;;;;;9.15;7.18;;;;;;;21.59;63.40;99870.53;5004733;28;20104;-64
2022/07/21 08:09:29;;;;;;;9.50;7.38;;;;;;;21.60;63.59;99874.91;5004877;28;20057;-64
2022/07/21 08:11:56;;;;;;;8.45;6.25;;;;;;;21.57;63.10;99872.53;5011980;28;20128;-63
2022/07/21 08:14:23;;;;;;;9.18;6.95;;;;;;;21.65;62.88;99873.47;5023466;28;20084;-64
2022/07/21 08:16:49;;;;;;;8.20;6.38;;;;;;;21.61;63.07;99876.63;5026556;28;20053;-64
2022/07/21 08:19:16;;;;;;;9.23;7.07;;;;;;;21.77;62.93;99876.00;5027992;28;20053;-65
2022/07/21 08:21:43;;;;;;;6.93;5.65;;;;;;;21.78;62.08;99872.31;5028317;28;20049;-65
2022/07/21 08:24:09;;;;;;;12.45;6.63;;;;;;;21.77;62.30;99876.00;5014609;28;20045;-65
2022/07/21 08:26:37;;;;;;;10.52;5.82;;;;;;;21.82;62.36;99869.19;5008259;28;20426;-65
2022/07/21 08:29:04;;;;;;;11.18;6.57;;;;;;;21.81;61.93;99869.38;5008418;28;20046;-65
2022/07/21 08:31:31;;;;;;;8.52;5.93;;;;;;;21.83;61.68;99865.53;5008177;28;20053;-65
2022/07/21 08:34:01;;;;;;;12.48;6.90;;;;;;;21.91;61.43;99872.84;5007473;28;20054;-65
2022/07/21 08:36:28;;;;;;;6.70;5.85;;;;;;;21.99;60.48;99866.75;5008045;28;20058;-65
2022/07/21 08:38:54;;;;;;;9.73;6.13;;;;;;;22.01;59.56;99870.97;5007980;28;20057;-65
2022/07/21 08:41:21;;;;;;;7.90;5.07;;;;;;;21.95;58.81;99871.56;5007464;28;20054;-65
2022/07/21 08:43:51;;;;;;;11.02;6.10;;;;;;;21.97;58.89;99872.25;5023281;28;20049;-65
2022/07/21 08:46:21;;;;;;;9.20;5.30;;;;;;;22.01;59.24;99868.31;5027578;28;20063;-65
2022/07/21 08:48:48;;;;;;;9.93;6.63;;;;;;;22.01;58.95;99870.97;5027871;28;20053;-64
2022/07/21 08:51:15;;;;;;;10.10;6.50;;;;;;;22.03;58.77;99871.69;5027808;28;20049;-65
2022/07/21 08:53:44;;;;;;;6.22;5.40;;;;;;;22.00;59.25;99871.13;5028354;28;20045;-65
2022/07/21 08:56:11;;;;;;;7.45;5.70;;;;;;;22.03;59.52;99866.31;5027206;28;20155;-65
2022/07/21 08:58:37;;;;;;;7.10;4.93;;;;;;;22.02;59.08;99874.50;5013201;28;20056;-65
2022/07/21 09:01:06;;;;;;;11.15;6.20;;;;;;;22.04;59.10;99872.53;5007991;28;20417;-65
2022/07/21 09:03:33;;;;;;;10.35;6.88;;;;;;;22.09;59.00;99871.09;5007788;28;20061;-65
2022/07/21 09:06:04;;;;;;;8.70;5.93;;;;;;;22.24;59.20;99868.78;5006698;28;20050;-65
2022/07/21 09:08:33;;;;;;;6.53;5.47;;;;;;;22.32;59.13;99867.19;5019966;28;20100;-65
2022/07/21 09:11:18;;;;;;;9.63;6.07;;;;;;;22.33;59.47;99875.13;5026905;28;20045;-65
2022/07/21 09:13:51;;;;;;;7.97;5.32;;;;;;;22.19;59.85;99876.41;5025964;28;20436;-65
2022/07/21 09:16:34;;;;;;;9.27;6.55;;;;;;;22.11;60.74;99878.16;5027042;28;20053;-65
2022/07/21 09:19:00;;;;;;;10.52;5.90;;;;;;;22.04;61.75;99885.94;5027321;28;20053;-65
2022/07/21 09:21:28;;;;;;;11.27;7.38;;;;;;;21.95;62.13;99890.34;5027264;28;20527;-65
2022/07/21 09:24:11;;;;;;;9.07;6.72;;;;;;;21.91;62.52;99885.44;5016093;28;20052;-65
2022/07/21 09:26:58;;;;;;;7.80;6.43;;;;;;;21.81;63.25;99891.69;5006423;28;20049;-66
2022/07/21 09:29:25;;;;;;;9.35;7.05;;;;;;;21.71;63.71;99903.41;5006497;28;20054;-65
2022/07/21 09:31:53;;;;;;;15.45;7.93;;;;;;;21.57;63.78;99907.41;5022421;28;20053;-65
2022/07/21 09:34:20;;;;;;;10.25;7.30;;;;;;;21.44;64.17;99903.19;5026370;28;20049;-65
2022/07/21 09:36:55;;;;;;;12.98;7.95;;;;;;;21.32;65.12;99900.75;5026246;28;20049;-65
2022/07/21 09:39:41;;;;;;;15.00;8.77;;;;;;;21.22;65.84;99906.97;5026983;28;20049;-65
2022/07/21 09:42:16;;;;;;;12.07;7.78;;;;;;;21.15;65.66;99908.50;5027163;28;20049;-65
2022/07/21 09:44:45;;;;;;;12.38;8.77;;;;;;;21.08;65.40;99903.84;5026068;28;20068;-65
2022/07/21 09:47:15;;;;;;;13.77;8.75;;;;;;;20.97;65.50;99903.00;5026103;28;20053;-66
2022/07/21 09:49:43;;;;;;;11.15;9.52;;;;;;;20.92;66.01;99907.06;5026780;28;20064;-65
2022/07/21 09:52:25;;;;;;;13.45;9.57;;;;;;;20.90;66.70;99911.75;5026651;28;20053;-65
2022/07/21 09:54:53;;;;;;;11.18;8.57;;;;;;;20.83;68.18;99911.44;5025977;28;20516;-65
2022/07/21 09:57:20;;;;;;;15.38;9.23;;;;;;;20.74;68.74;99914.94;5023057;28;20054;-65
2022/07/21 09:59:49;;;;;;;11.07;8.57;;;;;;;20.66;69.70;99906.75;5006473;28;20046;-65
2022/07/21 10:02:19;;;;;;;11.07;9.05;;;;;;;20.59;70.66;99909.13;5006596;28;20058;-65
2022/07/21 10:04:51;;;;;;;17.98;9.55;;;;;;;20.45;71.13;99915.66;5005836;28;20046;-65
2022/07/21 10:07:19;;;;;;;18.65;10.48;;;;;;;20.32;72.32;99915.91;5006639;28;20054;-65
2022/07/21 10:09:45;;;;;;;13.93;10.40;;;;;;;20.19;73.42;99920.66;5018497;28;20410;-65
2022/07/21 10:12:12;;;;;;;12.85;10.13;;;;;;;20.04;75.30;99924.66;5026817;28;20068;-65
2022/07/21 10:14:39;;;;;;;14.50;10.85;;;;;;;19.89;76.92;99929.50;5026027;28;20049;-65
2022/07/21 10:17:07;;;;;;;13.77;10.95;;;;;;;19.81;77.26;99918.59;5025583;28;20057;-65
2022/07/21 10:19:42;;;;;;;12.85;10.43;;;;;;;19.79;78.25;99924.09;5026233;28;20060;-65
2022/07/21 10:22:20;;;;;;;16.10;10.93;;;;;;;19.82;79.63;99923.84;5026093;28;20052;-66
2022/07/21 10:24:47;;;;;;;15.45;10.55;;;;;;;19.79;79.92;99918.75;5007664;28;20042;-65
2022/07/21 10:27:14;;;;;;;16.65;11.73;;;;;;;19.70;79.70;99923.03;5005358;28;20514;-64
2022/07/21 10:30:00;;;;;;;15.02;11.38;;;;;;;19.66;80.35;99934.09;5006340;28;20061;-64
2022/07/21 10:32:32;;;;;;;15.38;12.55;;;;;;;19.55;81.36;99926.16;5006759;28;20054;-65
2022/07/21 10:35:04;;;;;;;23.95;13.32;;;;;;;19.32;82.09;99926.25;5005833;28;20050;-65
2022/07/21 10:37:50;;;;;;;17.38;12.52;;;;;;;19.13;83.68;99932.28;5006535;28;20054;-65
2022/07/21 10:40:37;;;;;;;23.27;13.45;;;;;;;18.99;85.61;99933.41;5006330;28;20058;-65
2022/07/21 10:43:41;;;;;;;15.25;12.35;;;;;;;18.87;87.13;99937.06;5006497;28;20053;-64
2022/07/21 10:46:35;;;;;;;14.82;12.90;;;;;;;18.74;87.98;99937.19;5005428;28;20066;-65
2022/07/21 10:49:02;;;;;;;16.35;11.93;;;;;;;18.67;89.28;99944.84;5004714;28;20042;-64
2022/07/21 10:51:31;;;;;;;17.63;13.63;;;;;;;18.59;89.90;99935.78;5009411;28;20150;-65
2022/07/21 10:54:23;;;;;;;26.23;18.40;;;;;;;18.54;90.97;99943.31;5025519;28;20057;-65
2022/07/21 10:57:27;;;;;;;22.70;15.85;;;;;;;18.45;91.83;99943.03;5025149;28;20037;-64
2022/07/21 11:00:20;;;;;;;15.70;14.07;;;;;;;18.39;92.87;99942.72;5005486;28;20124;-65
2022/07/21 11:02:49;;;;;;;17.63;14.00;;;;;;;18.38;93.94;99946.31;4995911;28;20052;-64
2022/07/21 11:05:15;;;;;;;16.75;14.40;;;;;;;18.40;94.36;99947.06;5025074;28;20111;-64
2022/07/21 11:08:21;;;;;;;17.20;14.05;;;;;;;18.38;93.69;99935.66;5025359;28;20060;-63
2022/07/21 11:10:49;;;;;;;17.63;15.00;;;;;;;18.37;94.03;99937.47;5020990;28;20041;-64
2022/07/21 11:13:17;;;;;;;17.75;14.93;;;;;;;18.41;94.70;99940.75;5028760;28;20064;-64
2022/07/21 11:15:49;;;;;;;18.02;14.50;;;;;;;18.41;93.39;99940.75;5026492;28;20056;-64
2022/07/21 11:18:19;;;;;;;21.17;15.20;;;;;;;18.40;94.47;99937.22;5024557;28;20049;-64
2022/07/21 11:21:06;;;;;;;17.02;15.30;;;;;;;18.47;95.25;99945.59;5034303;28;20041;-64
2022/07/21 11:23:39;;;;;;;22.30;16.77;;;;;;;18.51;94.21;99939.06;5027557;28;20049;-63
2022/07/21 11:26:06;;;;;;;19.67;16.77;;;;;;;18.54;94.94;99945.97;5022549;28;20477;-65
2022/07/21 11:28:33;;;;;;;19.17;17.08;;;;;;;18.59;95.21;99943.78;5008996;28;20445;-68
2022/07/21 11:31:10;;;;;;;22.15;16.85;;;;;;;18.64;95.07;99945.09;5009922;28;20052;-65
2022/07/21 11:33:38;;;;;;;18.25;15.77;;;;;;;18.69;94.47;99949.25;5008806;28;20046;-65